Time;durP1;ratioP1;P1;durP2;ratioP2;P2;SDS_P1;SDS_P2;PMS_P1;PMS_P2;Temp;Humidity;BMP_temperature;BMP_pressure;BME280_temperature;BME280_humidity;BME280_pressure;Samples;Min_cycle;Max_cycle;Signal;HPM_P1;HPM_P2
2024/01/23 00:01:24;;;;;;;0.80;0.70;;;;;;;-143.84;66.49;45239.50;5070875;28;20532;-57
2024/01/23 00:03:52;;;;;;;0.80;0.50;;;;;;;-143.84;66.02;45243.31;5091398;28;20439;-57
2024/01/23 00:06:19;;;;;;;2.20;1.17;;;;;;;-143.84;66.02;45249.00;5091678;28;20984;-56
2024/01/23 00:08:48;;;;;;;0.80;0.50;;;;;;;-143.84;65.92;45247.09;5091282;28;20508;-57
2024/01/23 00:11:15;;;;;;;0.80;0.50;;;;;;;-143.84;66.07;45224.25;5091226;28;21220;-56
2024/01/23 00:13:45;;;;;;;1.87;0.80;;;;;;;-143.84;65.99;45228.06;5091234;28;20445;-56
2024/01/23 00:16:12;;;;;;;1.53;1.10;;;;;;;-143.84;66.07;45231.88;5091382;28;20558;-56
2024/01/23 00:18:39;;;;;;;0.80;0.60;;;;;;;-143.84;66.41;45214.72;5091459;28;20490;-56
2024/01/23 00:21:08;;;;;;;0.80;0.60;;;;;;;-143.84;65.98;45273.78;5091138;28;21193;-56
2024/01/23 00:23:35;;;;;;;0.80;0.50;;;;;;;-143.84;66.14;45256.63;5091235;28;20447;-57
2024/01/23 00:26:02;;;;;;;0.80;0.50;;;;;;;-143.84;66.08;45243.31;5091229;28;20447;-56
2024/01/23 00:28:29;;;;;;;0.80;0.40;;;;;;;-143.84;65.76;45252.81;5090959;28;20440;-57
2024/01/23 00:30:56;;;;;;;0.80;0.50;;;;;;;-143.84;65.33;45210.94;5079554;28;20502;-56
2024/01/23 00:33:23;;;;;;;0.80;0.60;;;;;;;-143.84;65.45;45247.09;5071207;28;20801;-57
2024/01/23 00:35:50;;;;;;;0.80;0.50;;;;;;;-143.84;65.63;45247.09;5070517;28;20443;-57
2024/01/23 00:38:19;;;;;;;0.80;0.60;;;;;;;-143.84;65.51;45218.53;5070651;28;20506;-57
2024/01/23 00:40:46;;;;;;;0.80;0.40;;;;;;;-143.84;65.49;45249.00;5070732;28;20451;-56
2024/01/23 00:43:14;;;;;;;0.80;0.50;;;;;;;-143.84;65.08;45235.69;5070802;28;20436;-57
2024/01/23 00:45:41;;;;;;;0.90;0.80;;;;;;;-143.84;64.65;45201.41;5070457;28;20447;-57
2024/01/23 00:48:08;;;;;;;0.80;0.40;;;;;;;-143.84;64.56;45228.06;5070435;28;20444;-56
2024/01/23 00:50:35;;;;;;;0.80;0.50;;;;;;;-143.84;65.47;45241.41;5070619;28;20440;-56
2024/01/23 00:53:02;;;;;;;0.80;0.40;;;;;;;-143.84;65.50;45245.19;5070335;28;20439;-56
2024/01/23 00:55:31;;;;;;;0.80;0.60;;;;;;;-143.84;65.24;45250.91;5070262;28;20475;-56
2024/01/23 00:57:58;;;;;;;0.90;0.70;;;;;;;-143.84;65.65;45243.31;5070831;28;20496;-56
2024/01/23 01:00:25;;;;;;;0.87;0.57;;;;;;;-143.84;65.08;45229.97;5070283;28;20443;-57
2024/01/23 01:02:52;;;;;;;0.80;0.40;;;;;;;-143.84;65.36;45210.94;5070216;28;20444;-56
2024/01/23 01:05:19;;;;;;;0.80;0.40;;;;;;;-143.84;65.19;45268.06;5070432;28;20453;-56
2024/01/23 01:07:46;;;;;;;0.80;0.40;;;;;;;-143.84;65.04;45235.69;5069838;28;21306;-56
2024/01/23 01:10:14;;;;;;;0.80;0.70;;;;;;;-143.84;65.14;45269.97;5070701;28;20509;-57
2024/01/23 01:12:42;;;;;;;0.90;0.73;;;;;;;-143.84;65.15;45254.72;5070011;28;20541;-57
2024/01/23 01:15:10;;;;;;;5.83;1.47;;;;;;;-143.84;65.96;45239.50;5069784;28;20451;-56
2024/01/23 01:17:37;;;;;;;2.10;2.00;;;;;;;-143.84;67.02;45250.91;5069841;28;20545;-56
2024/01/23 01:20:05;;;;;;;0.80;0.60;;;;;;;-143.84;66.96;45237.59;5069732;28;20460;-56
2024/01/23 01:22:33;;;;;;;0.80;0.50;;;;;;;-143.84;67.04;45237.59;5069170;28;20960;-57
2024/01/23 01:25:01;;;;;;;0.80;0.70;;;;;;;-143.84;66.67;45239.50;5069281;28;20447;-57
2024/01/23 01:27:28;;;;;;;2.07;0.70;;;;;;;-143.84;66.77;45266.16;5068848;28;20810;-56
2024/01/23 01:29:57;;;;;;;0.80;0.63;;;;;;;-143.84;66.87;45228.06;5068940;28;20445;-57
2024/01/23 01:32:24;;;;;;;0.93;0.70;;;;;;;-143.84;67.50;45235.69;5069764;28;20819;-57
2024/01/23 01:34:52;;;;;;;1.17;0.80;;;;;;;-143.84;68.09;45241.41;5069629;28;20494;-57
2024/01/23 01:37:19;;;;;;;0.80;0.60;;;;;;;-143.84;68.56;45249.00;5069695;28;20444;-56
2024/01/23 01:39:46;;;;;;;2.63;0.93;;;;;;;-143.84;68.75;45250.91;5069562;28;20436;-56
2024/01/23 01:42:13;;;;;;;0.80;0.50;;;;;;;-143.84;69.43;45243.31;5069275;28;20542;-56
2024/01/23 01:44:39;;;;;;;0.80;0.50;;;;;;;-143.84;69.98;45266.16;5069586;28;20983;-56
2024/01/23 01:47:09;;;;;;;0.80;0.60;;;;;;;-143.84;69.84;45239.50;5069499;28;20454;-57
2024/01/23 01:49:37;;;;;;;0.80;0.40;;;;;;;-143.84;70.20;45243.31;5069599;28;20443;-57
2024/01/23 01:52:05;;;;;;;0.80;0.50;;;;;;;-143.84;70.63;45233.78;5069521;28;20452;-56
2024/01/23 01:54:32;;;;;;;2.90;2.47;;;;;;;-143.84;70.73;45224.25;5069688;28;21167;-56
2024/01/23 01:57:00;;;;;;;0.90;0.67;;;;;;;-143.84;71.09;45254.72;5069350;28;20440;-57
2024/01/23 01:59:28;;;;;;;0.80;0.70;;;;;;;-143.84;71.13;45226.16;5069231;28;20534;-56
2024/01/23 02:01:56;;;;;;;1.30;1.20;;;;;;;-143.84;71.31;45279.47;5069399;28;20489;-56
2024/01/23 02:04:24;;;;;;;0.80;0.40;;;;;;;-143.84;71.28;45218.53;5069351;28;20466;-56
2024/01/23 02:06:52;;;;;;;1.13;1.03;;;;;;;-143.84;72.05;45271.88;5069685;28;20901;-56
2024/01/23 02:09:19;;;;;;;0.80;0.60;;;;;;;-143.84;71.94;45258.53;5069123;28;20435;-57
2024/01/23 02:12:06;;;;;;;0.80;0.70;;;;;;;-143.84;72.02;45243.31;5069056;28;20488;-57
2024/01/23 02:14:33;;;;;;;1.00;0.83;;;;;;;-143.84;71.97;45228.06;5069203;28;20448;-57
2024/01/23 02:17:01;;;;;;;0.80;0.50;;;;;;;-143.84;72.33;45250.91;5069078;28;20440;-56
2024/01/23 02:19:29;;;;;;;0.80;0.60;;;;;;;-143.84;72.39;45254.72;5074571;28;20490;-56
2024/01/23 02:21:56;;;;;;;0.80;0.50;;;;;;;-143.84;72.43;45250.91;5075837;28;20441;-56
2024/01/23 02:24:25;;;;;;;0.80;0.60;;;;;;;-143.84;73.18;45250.91;5075906;28;20439;-56
2024/01/23 02:26:52;;;;;;;1.23;1.13;;;;;;;-143.84;73.06;45239.50;5075719;28;20446;-56
2024/01/23 02:29:19;;;;;;;0.83;0.70;;;;;;;-143.84;73.22;45250.91;5076220;28;20494;-56
2024/01/23 02:31:46;;;;;;;1.00;0.90;;;;;;;-143.84;74.22;45245.19;5094051;28;20480;-57
2024/01/23 02:34:13;;;;;;;1.47;1.00;;;;;;;-143.84;74.24;45254.72;5096253;28;20440;-56
2024/01/23 02:36:41;;;;;;;0.80;0.50;;;;;;;-143.84;74.24;45243.31;5096298;28;20497;-56
2024/01/23 02:39:08;;;;;;;0.80;0.57;;;;;;;-143.84;74.59;45249.00;5096319;28;20532;-57
2024/01/23 02:41:39;;;;;;;0.80;0.60;;;;;;;-143.84;74.15;45249.00;5096395;28;20465;-56
2024/01/23 02:44:07;;;;;;;0.87;0.80;;;;;;;-143.84;74.14;45237.59;5095772;28;20988;-57
2024/01/23 02:46:34;;;;;;;0.80;0.50;;;;;;;-143.84;74.18;45241.41;5095927;28;20443;-57
2024/01/23 02:49:01;;;;;;;0.80;0.50;;;;;;;-143.84;75.07;45260.44;5095868;28;20454;-57
2024/01/23 02:51:28;;;;;;;0.90;0.63;;;;;;;-143.84;75.50;45247.09;5095957;28;20438;-56
2024/01/23 02:53:56;;;;;;;0.80;0.57;;;;;;;-143.84;75.47;45258.53;5095869;28;20457;-57
2024/01/23 02:56:23;;;;;;;1.13;1.03;;;;;;;-143.84;75.46;45233.78;5096047;28;20438;-56
2024/01/23 02:58:52;;;;;;;1.10;1.00;;;;;;;-143.84;75.27;45233.78;5095508;28;20539;-57
2024/01/23 03:01:19;;;;;;;1.77;1.00;;;;;;;-143.84;75.66;45226.16;5096024;28;20465;-57
2024/01/23 03:03:46;;;;;;;0.83;0.80;;;;;;;-143.84;76.38;45231.88;5095916;28;20430;-57
2024/01/23 03:06:13;;;;;;;1.30;1.13;;;;;;;-143.84;76.29;45243.31;5095503;28;20441;-56
2024/01/23 03:08:40;;;;;;;0.80;0.50;;;;;;;-143.84;76.53;45245.19;5095731;28;20442;-57
2024/01/23 03:11:08;;;;;;;0.80;0.40;;;;;;;-143.84;77.40;45222.34;5095236;28;20482;-57
2024/01/23 03:13:35;;;;;;;1.30;1.07;;;;;;;-143.84;77.77;45258.53;5095806;28;20482;-56
2024/01/23 03:16:04;;;;;;;0.80;0.53;;;;;;;-143.84;78.39;45247.09;5095817;28;20507;-56
2024/01/23 03:18:32;;;;;;;1.13;1.03;;;;;;;-143.84;78.28;45235.69;5095587;28;21003;-56
2024/01/23 03:20:59;;;;;;;0.80;0.50;;;;;;;-143.84;79.16;45239.50;5095422;28;20502;-56
2024/01/23 03:23:26;;;;;;;0.80;0.50;;;;;;;-143.84;79.51;45243.31;5095714;28;20450;-56
2024/01/23 03:25:53;;;;;;;0.80;0.67;;;;;;;-143.84;79.82;45247.09;5095509;28;20443;-57
2024/01/23 03:28:20;;;;;;;3.63;1.00;;;;;;;-143.84;79.51;45243.31;5095449;28;21047;-57
2024/01/23 03:30:47;;;;;;;1.37;1.13;;;;;;;-143.84;80.06;45250.91;5082209;28;20444;-57
2024/01/23 03:33:16;;;;;;;1.03;0.93;;;;;;;-143.84;80.40;45243.31;5071978;28;20451;-57
2024/01/23 03:35:43;;;;;;;0.87;0.87;;;;;;;-143.84;80.41;45247.09;5072322;28;20469;-57
2024/01/23 03:38:10;;;;;;;3.10;2.93;;;;;;;-143.84;79.92;45250.91;5071846;28;20471;-57
2024/01/23 03:40:38;;;;;;;2.30;1.80;;;;;;;-143.84;80.14;45241.41;5071739;28;20531;-57
2024/01/23 03:43:06;;;;;;;1.40;1.30;;;;;;;-143.84;80.17;45241.41;5071899;28;20845;-56
2024/01/23 03:45:33;;;;;;;0.80;0.50;;;;;;;-143.84;80.04;45266.16;5071797;28;20447;-56
2024/01/23 03:48:02;;;;;;;0.80;0.50;;;;;;;-143.84;80.78;45235.69;5071751;28;20860;-56
2024/01/23 03:50:30;;;;;;;1.63;1.53;;;;;;;-143.84;81.64;45226.16;5071638;28;20447;-56
2024/01/23 03:52:57;;;;;;;2.30;0.83;;;;;;;-143.84;81.83;45233.78;5071519;28;20519;-56
2024/01/23 03:55:25;;;;;;;0.90;0.80;;;;;;;-143.84;81.89;45239.50;5071548;28;21102;-56
2024/01/23 03:57:52;;;;;;;0.80;0.50;;;;;;;-143.84;82.61;45222.34;5071867;28;21334;-56
2024/01/23 04:00:20;;;;;;;0.97;0.87;;;;;;;-143.84;82.67;45224.25;5071783;28;21236;-56
2024/01/23 04:02:47;;;;;;;0.90;0.60;;;;;;;-143.84;82.75;45233.78;5071832;28;20429;-57
2024/01/23 04:05:16;;;;;;;0.80;0.60;;;;;;;-143.84;82.95;45243.31;5071793;28;20440;-56
2024/01/23 04:07:46;;;;;;;0.90;0.73;;;;;;;-143.84;83.41;45258.53;5071522;28;20503;-56
2024/01/23 04:10:13;;;;;;;0.80;0.57;;;;;;;-143.84;83.56;45249.00;5071217;28;20818;-57
2024/01/23 04:12:41;;;;;;;0.80;0.50;;;;;;;-143.84;83.83;45229.97;5071149;28;20484;-57
2024/01/23 04:15:09;;;;;;;0.80;0.67;;;;;;;-143.84;83.73;45233.78;5079408;28;20457;-59
2024/01/23 04:17:36;;;;;;;1.10;0.80;;;;;;;-143.84;83.67;45252.81;5091391;28;20470;-59
2024/01/23 04:20:04;;;;;;;1.20;0.90;;;;;;;-143.84;83.95;45228.06;5090841;28;20483;-59
2024/01/23 04:22:31;;;;;;;1.20;1.00;;;;;;;-143.84;84.77;45243.31;5090789;28;20948;-59
2024/01/23 04:24:59;;;;;;;2.17;1.97;;;;;;;-143.84;85.26;45239.50;5091161;28;20485;-59
2024/01/23 04:27:26;;;;;;;2.07;1.97;;;;;;;-143.84;85.68;45243.31;5090800;28;20515;-60
2024/01/23 04:29:53;;;;;;;0.80;0.47;;;;;;;-143.84;86.49;45226.16;5090129;28;20436;-60
2024/01/23 04:32:21;;;;;;;1.03;0.93;;;;;;;-143.84;85.96;45250.91;5090936;28;20444;-60
2024/01/23 04:34:48;;;;;;;0.93;0.80;;;;;;;-143.84;86.17;45252.81;5090925;28;20436;-59
2024/01/23 04:37:15;;;;;;;0.80;0.50;;;;;;;-143.84;86.14;45231.88;5090170;28;20443;-60
2024/01/23 04:39:42;;;;;;;0.80;0.60;;;;;;;-143.84;87.08;45218.53;5089747;28;20536;-60
2024/01/23 04:42:11;;;;;;;20.10;2.63;;;;;;;-143.84;87.39;45260.44;5088677;28;20458;-59
2024/01/23 04:44:38;;;;;;;0.80;0.40;;;;;;;-143.84;87.39;45243.31;5089419;28;21105;-60
2024/01/23 04:47:06;;;;;;;3.07;0.93;;;;;;;-143.84;86.91;45228.06;5090449;28;20436;-60
2024/01/23 04:49:33;;;;;;;1.63;1.53;;;;;;;-143.84;86.70;45245.19;5090581;28;20437;-60
2024/01/23 04:52:00;;;;;;;0.80;0.40;;;;;;;-143.84;86.55;45224.25;5090279;28;20485;-60
2024/01/23 04:54:27;;;;;;;0.87;0.70;;;;;;;-143.84;86.45;45220.44;5089242;28;20439;-59
2024/01/23 04:56:54;;;;;;;0.90;0.73;;;;;;;-143.84;85.88;45252.81;5090121;28;20452;-60
2024/01/23 04:59:23;;;;;;;0.80;0.50;;;;;;;-143.84;85.64;45216.63;5090202;28;20483;-59
2024/01/23 05:01:50;;;;;;;0.80;0.50;;;;;;;-143.84;85.45;45231.88;5090346;28;20455;-59
2024/01/23 05:04:17;;;;;;;3.07;0.70;;;;;;;-143.84;84.90;45231.88;5088476;28;20437;-59
2024/01/23 05:06:44;;;;;;;0.90;0.67;;;;;;;-143.84;84.88;45210.94;5090120;28;20501;-60
2024/01/23 05:09:11;;;;;;;1.13;1.03;;;;;;;-143.84;84.97;45243.31;5089989;28;21084;-60
2024/01/23 05:11:38;;;;;;;0.80;0.60;;;;;;;-143.84;84.37;45235.69;5089745;28;20477;-60
2024/01/23 05:14:05;;;;;;;0.90;0.70;;;;;;;-143.84;84.49;45195.69;5089973;28;20931;-59
2024/01/23 05:16:35;;;;;;;1.50;1.40;;;;;;;-143.84;83.96;45229.97;5089721;28;20453;-59
2024/01/23 05:19:02;;;;;;;0.80;0.70;;;;;;;-143.84;84.33;45209.03;5089793;28;20565;-60
2024/01/23 05:21:29;;;;;;;10.00;2.63;;;;;;;-143.84;84.24;45245.19;5089709;28;20943;-60
2024/01/23 05:23:56;;;;;;;0.80;0.50;;;;;;;-143.84;84.30;45214.72;5089845;28;20599;-60
2024/01/23 05:26:23;;;;;;;1.07;0.90;;;;;;;-143.84;84.02;45214.72;5089612;28;20441;-60
2024/01/23 05:28:50;;;;;;;1.33;0.90;;;;;;;-143.84;83.57;45220.44;5089706;28;21204;-60
2024/01/23 05:31:17;;;;;;;0.80;0.70;;;;;;;-143.84;83.52;45241.41;5075180;28;20449;-59
2024/01/23 05:33:46;;;;;;;1.03;0.83;;;;;;;-143.84;83.43;45212.84;5069252;28;20874;-60
2024/01/23 05:36:13;;;;;;;1.43;1.33;;;;;;;-143.84;83.37;45224.25;5069439;28;21374;-60
2024/01/23 05:38:40;;;;;;;6.37;1.10;;;;;;;-143.84;83.11;45228.06;5069488;28;20528;-60
2024/01/23 05:41:07;;;;;;;2.13;2.03;;;;;;;-143.84;82.68;45212.84;5069499;28;20505;-59
2024/01/23 05:43:35;;;;;;;1.83;1.43;;;;;;;-143.84;82.60;45212.84;5069740;28;20433;-60
2024/01/23 05:46:03;;;;;;;1.27;1.17;;;;;;;-143.84;83.03;45199.50;5069477;28;20438;-59
2024/01/23 05:48:30;;;;;;;0.80;0.60;;;;;;;-143.84;82.96;45228.06;5069011;28;21095;-59
2024/01/23 05:50:59;;;;;;;1.50;1.23;;;;;;;-143.84;82.53;45247.09;5068845;28;20451;-59
2024/01/23 05:53:26;;;;;;;0.80;0.73;;;;;;;-143.84;82.56;45250.91;5068855;28;20458;-60
2024/01/23 05:55:54;;;;;;;4.50;1.90;;;;;;;-143.84;82.46;45220.44;5068959;28;20441;-60
2024/01/23 05:58:21;;;;;;;2.40;1.17;;;;;;;-143.84;82.31;45235.69;5069301;28;20527;-59
2024/01/23 06:00:48;;;;;;;3.27;2.70;;;;;;;-143.84;82.38;45231.88;5068898;28;20497;-60
2024/01/23 06:03:15;;;;;;;1.47;0.87;;;;;;;-143.84;81.84;45210.94;5068978;28;20435;-60
2024/01/23 06:05:42;;;;;;;0.83;0.63;;;;;;;-143.84;82.15;45209.03;5068843;28;20939;-59
2024/01/23 06:08:12;;;;;;;0.80;0.80;;;;;;;-143.84;82.46;45235.69;5068683;28;20438;-60
2024/01/23 06:10:40;;;;;;;0.80;0.57;;;;;;;-143.84;82.78;45197.59;5068551;28;20511;-59
2024/01/23 06:13:07;;;;;;;0.80;0.60;;;;;;;-143.84;82.69;45220.44;5068849;28;20451;-59
2024/01/23 06:15:34;;;;;;;3.80;1.60;;;;;;;-143.84;82.81;45239.50;5068560;28;20446;-59
2024/01/23 06:18:01;;;;;;;0.93;0.83;;;;;;;-143.84;82.74;45224.25;5068453;28;20554;-60
2024/01/23 06:20:28;;;;;;;1.30;1.20;;;;;;;-143.84;82.58;45214.72;5068478;28;20863;-59
2024/01/23 06:22:55;;;;;;;1.67;1.33;;;;;;;-143.84;82.80;45237.59;5068604;28;20440;-59
2024/01/23 06:25:24;;;;;;;0.87;0.70;;;;;;;-143.84;82.70;45245.19;5068487;28;20448;-60
2024/01/23 06:27:51;;;;;;;1.30;1.20;;;;;;;-143.84;82.23;45210.94;5068502;28;20455;-59
2024/01/23 06:30:18;;;;;;;1.27;1.00;;;;;;;-143.84;82.05;45201.41;5068861;28;20443;-60
2024/01/23 06:32:45;;;;;;;0.93;0.83;;;;;;;-143.84;81.31;45241.41;5068429;28;20973;-59
2024/01/23 06:35:12;;;;;;;0.80;0.70;;;;;;;-143.84;81.16;45245.19;5068429;28;20443;-59
2024/01/23 06:37:40;;;;;;;2.20;0.83;;;;;;;-143.84;80.53;45189.97;5068712;28;20459;-60
2024/01/23 06:40:09;;;;;;;3.87;2.70;;;;;;;-143.84;80.18;45189.97;5068414;28;20546;-60
2024/01/23 06:42:38;;;;;;;1.40;1.10;;;;;;;-143.84;79.64;45203.31;5068350;28;20506;-60
2024/01/23 06:45:06;;;;;;;0.80;0.50;;;;;;;-143.84;79.12;45203.31;5068468;28;20475;-60
2024/01/23 06:47:33;;;;;;;1.83;1.73;;;;;;;-143.84;79.17;45212.84;5068746;28;20458;-60
2024/01/23 06:50:00;;;;;;;1.80;1.70;;;;;;;-143.84;79.37;45224.25;5068672;28;20444;-60
2024/01/23 06:52:28;;;;;;;0.83;0.63;;;;;;;-143.84;79.32;45229.97;5068742;28;20448;-60
2024/01/23 06:54:55;;;;;;;0.90;0.80;;;;;;;-143.84;79.42;45220.44;5068927;28;20453;-59
2024/01/23 06:57:22;;;;;;;5.70;2.50;;;;;;;-143.84;79.76;45237.59;5068366;28;20443;-59
2024/01/23 06:59:50;;;;;;;0.80;0.60;;;;;;;-143.84;79.40;45224.25;5068250;28;20491;-59
2024/01/23 07:02:18;;;;;;;2.70;1.77;;;;;;;-143.84;79.11;45237.59;5068342;28;20506;-60
2024/01/23 07:04:45;;;;;;;0.80;0.60;;;;;;;-143.84;78.23;45197.59;5068711;28;20446;-60
2024/01/23 07:07:12;;;;;;;1.17;1.07;;;;;;;-143.84;77.17;45222.34;5071956;28;20448;-60
2024/01/23 07:09:39;;;;;;;1.23;1.13;;;;;;;-143.84;76.77;45220.44;5071936;28;20440;-60
2024/01/23 07:12:07;;;;;;;1.70;1.60;;;;;;;-143.84;76.23;45205.22;5071860;28;20487;-60
2024/01/23 07:14:35;;;;;;;5.27;2.93;;;;;;;-143.84;76.19;45186.16;5072405;28;20494;-60
2024/01/23 07:17:04;;;;;;;4.30;1.17;;;;;;;-143.84;75.69;45201.41;5071845;28;21189;-60
2024/01/23 07:19:31;;;;;;;1.53;1.43;;;;;;;-143.84;75.50;45189.97;5071788;28;20504;-60
2024/01/23 07:21:58;;;;;;;3.10;1.60;;;;;;;-143.84;75.88;45197.59;5071986;28;20929;-59
2024/01/23 07:24:25;;;;;;;1.47;1.37;;;;;;;-143.84;75.47;45188.06;5071447;28;20441;-59
2024/01/23 07:26:52;;;;;;;1.63;1.33;;;;;;;-143.84;75.41;45207.13;5071474;28;20445;-60
2024/01/23 07:29:19;;;;;;;5.07;1.97;;;;;;;-143.84;75.30;45203.31;5071525;28;20444;-60
2024/01/23 07:31:46;;;;;;;2.20;1.17;;;;;;;-143.84;74.80;45170.94;5071206;28;20459;-60
2024/01/23 07:34:15;;;;;;;2.53;1.40;;;;;;;-143.84;73.87;45210.94;5071323;28;20502;-60
2024/01/23 07:36:42;;;;;;;1.53;1.23;;;;;;;-143.84;72.89;45191.88;5071550;28;20479;-60
2024/01/23 07:39:09;;;;;;;1.23;0.83;;;;;;;-143.84;70.97;45220.44;5071367;28;21019;-59
2024/01/23 07:41:36;;;;;;;2.07;1.87;;;;;;;-143.84;70.17;45193.78;5071128;28;20498;-59
2024/01/23 07:44:03;;;;;;;2.97;2.77;;;;;;;-143.84;69.67;45180.47;5071277;28;20448;-59
2024/01/23 07:46:30;;;;;;;3.57;1.97;;;;;;;-143.84;68.43;45176.66;5071266;28;20494;-59
2024/01/23 07:48:57;;;;;;;1.50;1.17;;;;;;;-143.84;67.92;45172.84;5071363;28;20446;-59
2024/01/23 07:51:27;;;;;;;1.00;0.90;;;;;;;-143.84;67.50;45174.75;5071168;28;20493;-59
2024/01/23 07:53:54;;;;;;;2.47;2.03;;;;;;;-143.84;67.19;45159.50;5070866;28;20452;-59
2024/01/23 07:56:21;;;;;;;2.13;1.10;;;;;;;-143.84;65.63;45169.03;5071027;28;20683;-59
2024/01/23 07:58:49;;;;;;;2.00;1.27;;;;;;;-143.84;65.54;45188.06;5070460;28;20441;-59
2024/01/23 08:01:16;;;;;;;2.20;2.00;;;;;;;-143.84;65.05;45178.56;5069846;28;20468;-59
2024/01/23 08:03:43;;;;;;;3.17;2.10;;;;;;;-143.84;65.83;45197.59;5070858;28;20445;-59
2024/01/23 08:06:10;;;;;;;0.80;0.60;;;;;;;-143.84;64.65;45159.50;5070959;28;20486;-59
2024/01/23 08:08:43;;;;;;;1.17;1.07;;;;;;;-143.84;63.71;45188.06;5071016;28;20468;-59
2024/01/23 08:11:12;;;;;;;1.43;1.13;;;;;;;-143.84;63.80;45167.13;5070738;28;20473;-60
2024/01/23 08:13:39;;;;;;;0.90;0.80;;;;;;;-143.84;63.56;45170.94;5071232;28;20440;-59
2024/01/23 08:16:09;;;;;;;2.17;2.07;;;;;;;-143.84;63.97;45201.41;5070183;28;20479;-59
2024/01/23 08:18:36;;;;;;;3.43;2.50;;;;;;;-143.84;63.75;45209.03;5070620;28;20440;-59
2024/01/23 08:21:03;;;;;;;1.80;1.70;;;;;;;-143.84;64.68;45189.97;5070796;28;20488;-59
2024/01/23 08:23:30;;;;;;;3.53;2.40;;;;;;;-143.84;64.55;45165.22;5070734;28;20471;-59
2024/01/23 08:25:59;;;;;;;1.97;1.00;;;;;;;-143.84;65.19;45172.84;5070680;28;20478;-59
2024/01/23 08:28:27;;;;;;;2.43;2.10;;;;;;;-143.84;65.34;45201.41;5070749;28;21130;-59
2024/01/23 08:30:54;;;;;;;3.10;0.70;;;;;;;-143.84;65.03;45186.16;5081703;28;20443;-59
2024/01/23 08:33:22;;;;;;;1.33;1.23;;;;;;;-143.84;65.55;45174.75;5090563;28;20942;-59
2024/01/23 08:35:50;;;;;;;0.90;0.80;;;;;;;-143.84;65.17;45212.84;5090630;28;20451;-59
2024/01/23 08:38:17;;;;;;;0.90;0.77;;;;;;;-143.84;64.54;45172.84;5089109;28;20439;-59
2024/01/23 08:40:45;;;;;;;1.00;0.90;;;;;;;-143.84;61.46;45178.56;5090558;28;20881;-59
2024/01/23 08:43:13;;;;;;;0.80;0.60;;;;;;;-143.84;60.74;45148.09;5090285;28;20928;-60
2024/01/23 08:45:40;;;;;;;1.20;1.00;;;;;;;-143.84;60.68;45174.75;5090521;28;20442;-60
2024/01/23 08:48:08;;;;;;;1.40;1.30;;;;;;;-143.84;57.68;45142.38;5090393;28;21259;-59
2024/01/23 08:50:35;;;;;;;0.97;0.80;;;;;;;-143.84;57.33;45144.28;5090435;28;20474;-60
2024/01/23 08:53:03;;;;;;;2.43;1.30;;;;;;;-143.84;56.09;45170.94;5090430;28;21102;-60
2024/01/23 08:55:30;;;;;;;1.00;0.80;;;;;;;-143.84;53.82;45165.22;5090233;28;20436;-60
2024/01/23 08:57:57;;;;;;;1.60;1.20;;;;;;;-143.84;52.55;45144.28;5090074;28;20444;-59
2024/01/23 09:00:26;;;;;;;4.40;1.03;;;;;;;-143.84;52.58;45161.41;5089946;28;20471;-59
2024/01/23 09:02:53;;;;;;;2.40;1.97;;;;;;;-143.84;51.79;45146.19;5090056;28;20505;-59
2024/01/23 09:05:19;;;;;;;0.83;0.67;;;;;;;-143.84;51.21;45155.69;5090135;28;20813;-59
2024/01/23 09:07:46;;;;;;;0.90;0.73;;;;;;;-143.84;49.14;45142.38;5089926;28;20450;-59
2024/01/23 09:10:13;;;;;;;1.07;0.73;;;;;;;-143.84;49.37;45172.84;5089839;28;20964;-59
2024/01/23 09:12:41;;;;;;;1.27;1.07;;;;;;;-143.84;49.47;45159.50;5089792;28;20569;-59
2024/01/23 09:15:09;;;;;;;1.00;0.90;;;;;;;-143.84;48.18;45148.09;5084753;28;20502;-59
2024/01/23 09:17:38;;;;;;;1.67;1.57;;;;;;;-143.84;49.81;45155.69;5082464;28;20448;-59
2024/01/23 09:20:06;;;;;;;1.10;0.80;;;;;;;-143.84;49.31;45140.47;5089743;28;20884;-59
2024/01/23 09:25:55;;;;;;;0.90;0.80;;;;;;;-143.84;49.18;45153.81;5089773;28;20476;-59
2024/01/23 09:28:22;;;;;;;0.80;0.60;;;;;;;-143.84;48.94;45172.84;5089101;28;20440;-59
2024/01/23 09:30:49;;;;;;;2.40;1.23;;;;;;;-143.84;50.54;45148.09;5079233;28;20463;-59
2024/01/23 09:33:17;;;;;;;1.00;0.90;;;;;;;-143.84;49.45;45163.31;5069469;28;20460;-59
2024/01/23 09:35:44;;;;;;;1.90;1.57;;;;;;;-143.84;49.53;45125.22;5069413;28;20437;-59
2024/01/23 09:38:11;;;;;;;1.80;1.70;;;;;;;-143.84;49.23;45155.69;5069337;28;21259;-59
2024/01/23 09:40:39;;;;;;;5.13;1.93;;;;;;;-143.84;48.74;45155.69;5069111;28;20842;-59
2024/01/23 09:43:11;;;;;;;1.50;1.40;;;;;;;-143.84;47.90;45134.75;5068973;28;20451;-59
2024/01/23 09:45:40;;;;;;;1.53;1.43;;;;;;;-143.84;49.07;45155.69;5069043;28;20923;-59
2024/01/23 09:48:08;;;;;;;1.40;1.30;;;;;;;-143.84;49.42;45174.75;5070314;28;20824;-59
2024/01/23 09:50:38;;;;;;;5.00;1.60;;;;;;;-143.84;48.61;45132.84;5069038;28;20444;-59
2024/01/23 09:53:07;;;;;;;1.70;1.57;;;;;;;-143.84;49.67;45144.28;5069464;28;20542;-59
2024/01/23 09:55:34;;;;;;;0.93;0.83;;;;;;;-143.84;49.61;45167.13;5069175;28;20436;-59
2024/01/23 09:58:03;;;;;;;1.50;1.40;;;;;;;-143.84;50.20;45119.53;5071886;28;20440;-59
2024/01/23 10:00:30;;;;;;;1.53;1.20;;;;;;;-143.84;50.86;45163.31;5072703;28;20472;-59
2024/01/23 10:02:57;;;;;;;2.30;1.30;;;;;;;-143.84;51.04;45155.69;5085961;28;20578;-59
2024/01/23 10:05:25;;;;;;;5.47;1.00;;;;;;;-143.84;51.87;45157.59;5070619;28;20490;-59
2024/01/23 10:07:54;;;;;;;1.33;1.23;;;;;;;-143.84;53.82;45155.69;5069298;28;20938;-59
2024/01/23 10:10:21;;;;;;;1.10;0.90;;;;;;;-143.84;55.43;45136.66;5069152;28;20492;-59
2024/01/23 10:12:49;;;;;;;0.90;0.70;;;;;;;-143.84;56.40;45167.13;5068646;28;20484;-59
2024/01/23 10:15:18;;;;;;;3.47;3.17;;;;;;;-143.84;57.26;45169.03;5076915;28;20436;-60
2024/01/23 10:17:46;;;;;;;1.77;1.67;;;;;;;-143.84;59.07;45174.75;5072544;28;20814;-59
2024/01/23 10:20:13;;;;;;;1.20;1.10;;;;;;;-143.84;60.66;45155.69;5068592;28;20567;-60
2024/01/23 10:22:41;;;;;;;1.43;0.93;;;;;;;-143.84;61.96;45180.47;5077727;28;20425;-59
2024/01/23 10:25:11;;;;;;;0.80;0.80;;;;;;;-143.84;63.28;45169.03;5077365;28;20444;-59
2024/01/23 10:27:38;;;;;;;2.73;2.40;;;;;;;-143.84;63.71;45195.69;5088859;28;20452;-59
2024/01/23 10:30:06;;;;;;;1.80;1.67;;;;;;;-143.84;64.34;45167.13;5088742;28;20450;-59
2024/01/23 10:32:34;;;;;;;3.53;1.53;;;;;;;-143.84;65.05;45188.06;5088727;28;20452;-60
2024/01/23 10:35:01;;;;;;;2.33;2.13;;;;;;;-143.84;65.82;45195.69;5088917;28;20946;-59
2024/01/23 10:37:28;;;;;;;1.07;0.97;;;;;;;-143.84;65.89;45191.88;5088800;28;20436;-59
2024/01/23 10:39:56;;;;;;;1.00;0.90;;;;;;;-143.84;66.07;45151.91;5090911;28;20446;-60
2024/01/23 10:42:25;;;;;;;1.57;0.93;;;;;;;-143.84;65.46;45169.03;5092986;28;20482;-59
2024/01/23 10:44:52;;;;;;;6.53;1.77;;;;;;;-143.84;65.74;45191.88;5084977;28;20506;-59
2024/01/23 10:47:19;;;;;;;1.30;1.20;;;;;;;-143.84;66.60;45189.97;5087812;28;20475;-59
2024/01/23 10:49:47;;;;;;;0.97;0.87;;;;;;;-143.84;67.10;45140.47;5090635;28;20492;-59
2024/01/23 10:52:16;;;;;;;1.90;1.03;;;;;;;-143.84;66.66;45146.19;5072345;28;20490;-60
2024/01/23 10:54:46;;;;;;;6.33;1.27;;;;;;;-143.84;66.58;45176.66;5072381;28;20449;-60
2024/01/23 10:57:21;;;;;;;1.23;1.00;;;;;;;-143.84;67.80;45180.47;5072273;28;20517;-59
2024/01/23 10:59:50;;;;;;;1.43;1.33;;;;;;;-143.84;68.09;45163.31;5072259;28;20444;-59
2024/01/23 11:02:25;;;;;;;1.47;1.27;;;;;;;-143.84;68.41;45245.19;5072105;28;20480;-60
2024/01/23 11:04:53;;;;;;;0.80;0.53;;;;;;;-143.84;68.39;45174.75;5072410;28;21399;-59
2024/01/23 11:07:27;;;;;;;1.67;1.07;;;;;;;-143.84;68.68;45199.50;5072300;28;20494;-60
2024/01/23 11:10:03;;;;;;;1.43;0.90;;;;;;;-143.84;68.50;45186.16;5071897;28;20793;-60
2024/01/23 11:12:38;;;;;;;10.63;1.20;;;;;;;-143.84;68.91;45155.69;5071208;28;20925;-59
2024/01/23 11:15:14;;;;;;;0.90;0.73;;;;;;;-143.84;68.02;45191.88;5071857;28;21177;-59
2024/01/23 11:17:41;;;;;;;1.97;0.70;;;;;;;-143.84;67.73;45199.50;5071137;28;20527;-60
2024/01/23 11:20:13;;;;;;;1.10;1.00;;;;;;;-143.84;68.26;45191.88;5071105;28;20918;-59
2024/01/23 11:22:40;;;;;;;0.90;0.70;;;;;;;-143.84;68.15;45159.50;5071575;28;21010;-59